Boone, Indiana
Current Conditions -  °F | °C
As of 9:55 AM on Thursday 27 Nov 2014 (Local Time) from KHNB Reporting Station
Overcast Overcast  
Wind Chill: 19°   Ceiling: 1800
Heat Index: 28°   Visibility: 9mi
Dew Point: 21°   Wind: 10mph
Humidity: 74%   Direction: 310°NW
Pressure: 30.42"   Gusts: NA
Location:  38.4175°N, 86.9656°W
Report Text: KHNB 271555Z AUTO 31009KT 9SM OVC018 M02/M06 A3042 RMK AO1
Loading
Personal Weather Stations






























Interactive Weather Map New forecast layout! Learn more

10-Day Weather Forecast

Advertisements
Track Severe Weather on mobile